WXM80 ListenWXM80 Stop

You find our weather info also at:

UK Metoffice

WeatherCloud

Weather Underground

Northeastern Weather Network

AWEKAS

Citizen Weather Observer Program (CWOP)

HAMweather, WeatherForYou, PWS Weather


Weather Underground History page Text

Daily Summary for January 10, 2017 Units:  Both    English   Metric
« Previous Day
Next Day »
Daily Weekly Monthly Yearly Custom
  High: Low: Average:
Temperature: 45.5 °F /  7.5 °C 12.6 °F /  -10.8 °C 27.5 °F /  -2.5 °C
Dew Point: 40.9 °F /  4.9 °C 8.8 °F /  -12.9 °C 23.2 °F /  -4.9 °C
Humidity: 93 % 72 % 84 %
Wind Speed: 7.7 mph /  12.4 km/h - 1.3 mph /  2.1 km/h
Wind Gust: 29.0 mph /  46.7 km/h - -
Wind:- - SSE
Pressure: 30.64 in /  1037.5 hPa 30.18 in /  1021.9 hPa -
Precipitation: 0.00 in /  0 mm    
Historical Graphs
 
 
Tabular Data for January 10, 2017
Time Temperature Dew Point Pressure Wind Wind Speed Wind Gust Humidity Rainfall Rate (Hourly)
00:01 17.5 °F /  -8.1 °C 11.5 °F /  -11.4 °C 30.64 in /  1037.5 hPa WSW 0.1 mph /  0.2 km/h 29.0 mph /  46.7 km/h 77 % 0.00 in /  0 mm
00:06 17.4 °F /  -8.1 °C 11.4 °F /  -11.4 °C 30.64 in /  1037.5 hPa Calm   29.0 mph /  46.7 km/h 77 % 0.00 in /  0 mm
00:11 17.3 °F /  -8.2 °C 11.3 °F /  -11.5 °C 30.63 in /  1037.1 hPa WSW 0.8 mph /  1.3 km/h 29.0 mph /  46.7 km/h 77 % 0.00 in /  0 mm
00:16 17.1 °F /  -8.3 °C 10.8 °F /  -11.8 °C 30.63 in /  1037.1 hPa WSW 1.3 mph /  2.1 km/h 29.0 mph /  46.7 km/h 76 % 0.00 in /  0 mm
00:21 17.0 °F /  -8.3 °C 10.7 °F /  -11.8 °C 30.63 in /  1037.1 hPa WSW 1.1 mph /  1.8 km/h 29.0 mph /  46.7 km/h 76 % 0.00 in /  0 mm
00:27 16.8 °F /  -8.4 °C 10.8 °F /  -11.8 °C 30.63 in /  1037.1 hPa WSW 1.7 mph /  2.7 km/h 29.0 mph /  46.7 km/h 77 % 0.00 in /  0 mm
00:32 16.7 °F /  -8.5 °C 10.7 °F /  -11.8 °C 30.63 in /  1037.1 hPa WSW 1.7 mph /  2.7 km/h 29.0 mph /  46.7 km/h 77 % 0.00 in /  0 mm
00:37 16.5 °F /  -8.6 °C 10.5 °F /  -11.9 °C 30.63 in /  1037.1 hPa WSW 1.8 mph /  2.9 km/h 29.0 mph /  46.7 km/h 77 % 0.00 in /  0 mm
00:42 16.4 °F /  -8.7 °C 10.4 °F /  -12 °C 30.62 in /  1036.8 hPa WSW 0.9 mph /  1.4 km/h 29.0 mph /  46.7 km/h 77 % 0.00 in /  0 mm
00:47 16.3 °F /  -8.7 °C 10.4 °F /  -12 °C 30.63 in /  1037.1 hPa WSW 0.9 mph /  1.4 km/h 29.0 mph /  46.7 km/h 77 % 0.00 in /  0 mm
00:52 16.2 °F /  -8.8 °C 10.5 °F /  -11.9 °C 30.62 in /  1036.8 hPa WSW 0.2 mph /  0.3 km/h 29.0 mph /  46.7 km/h 78 % 0.00 in /  0 mm
00:57 16.1 °F /  -8.8 °C 10.4 °F /  -12 °C 30.62 in /  1036.8 hPa WSW 1.3 mph /  2.1 km/h 29.0 mph /  46.7 km/h 78 % 0.00 in /  0 mm
01:02 15.9 °F /  -8.9 °C 10.3 °F /  -12.1 °C 30.62 in /  1036.8 hPa Calm   29.0 mph /  46.7 km/h 78 % 0.00 in /  0 mm
01:07 15.8 °F /  -9 °C 10.2 °F /  -12.1 °C 30.62 in /  1036.8 hPa Calm   29.0 mph /  46.7 km/h 78 % 0.00 in /  0 mm
01:12 15.7 °F /  -9.1 °C 10.1 °F /  -12.2 °C 30.62 in /  1036.8 hPa Calm   29.0 mph /  46.7 km/h 78 % 0.00 in /  0 mm
01:17 15.5 °F /  -9.2 °C 9.9 °F /  -12.3 °C 30.61 in /  1036.5 hPa Calm   29.0 mph /  46.7 km/h 78 % 0.00 in /  0 mm
01:22 15.3 °F /  -9.3 °C 9.7 °F /  -12.4 °C 30.61 in /  1036.5 hPa Calm   29.0 mph /  46.7 km/h 78 % 0.00 in /  0 mm
01:27 15.2 °F /  -9.3 °C 9.6 °F /  -12.4 °C 30.61 in /  1036.5 hPa Calm   29.0 mph /  46.7 km/h 78 % 0.00 in /  0 mm
01:32 15.0 °F /  -9.4 °C 9.7 °F /  -12.4 °C 30.61 in /  1036.5 hPa Calm   29.0 mph /  46.7 km/h 79 % 0.00 in /  0 mm
01:37 14.9 °F /  -9.5 °C 9.8 °F /  -12.3 °C 30.61 in /  1036.5 hPa Calm   29.0 mph /  46.7 km/h 80 % 0.00 in /  0 mm
01:42 14.7 °F /  -9.6 °C 9.6 °F /  -12.4 °C 30.62 in /  1036.8 hPa Calm   29.0 mph /  46.7 km/h 80 % 0.00 in /  0 mm
01:47 14.5 °F /  -9.7 °C 9.5 °F /  -12.5 °C 30.62 in /  1036.8 hPa Calm   29.0 mph /  46.7 km/h 80 % 0.00 in /  0 mm
01:52 14.4 °F /  -9.8 °C 9.4 °F /  -12.6 °C 30.62 in /  1036.8 hPa Calm   29.0 mph /  46.7 km/h 80 % 0.00 in /  0 mm
01:57 14.3 °F /  -9.8 °C 9.3 °F /  -12.6 °C 30.62 in /  1036.8 hPa Calm   29.0 mph /  46.7 km/h 80 % 0.00 in /  0 mm
02:03 14.1 °F /  -9.9 °C 9.3 °F /  -12.6 °C 30.62 in /  1036.8 hPa WSW 0.1 mph /  0.2 km/h 29.0 mph /  46.7 km/h 81 % 0.00 in /  0 mm
02:08 14.1 °F /  -9.9 °C 9.3 °F /  -12.6 °C 30.62 in /  1036.8 hPa Calm   29.0 mph /  46.7 km/h 81 % 0.00 in /  0 mm
02:13 14.0 °F /  -10 °C 9.5 °F /  -12.5 °C 30.62 in /  1036.8 hPa Calm   29.0 mph /  46.7 km/h 82 % 0.00 in /  0 mm
02:18 13.9 °F /  -10.1 °C 9.4 °F /  -12.6 °C 30.62 in /  1036.8 hPa Calm   29.0 mph /  46.7 km/h 82 % 0.00 in /  0 mm
02:23 13.8 °F /  -10.1 °C 9.3 °F /  -12.6 °C 30.62 in /  1036.8 hPa Calm   29.0 mph /  46.7 km/h 82 % 0.00 in /  0 mm
02:28 13.7 °F /  -10.2 °C 9.2 °F /  -12.7 °C 30.62 in /  1036.8 hPa Calm   29.0 mph /  46.7 km/h 82 % 0.00 in /  0 mm
02:33 13.7 °F /  -10.2 °C 9.2 °F /  -12.7 °C 30.62 in /  1036.8 hPa Calm   29.0 mph /  46.7 km/h 82 % 0.00 in /  0 mm
02:38 13.7 °F /  -10.2 °C 9.5 °F /  -12.5 °C 30.61 in /  1036.5 hPa Calm   29.0 mph /  46.7 km/h 83 % 0.00 in /  0 mm
02:43 13.6 °F /  -10.2 °C 9.1 °F /  -12.7 °C 30.62 in /  1036.8 hPa Calm   29.0 mph /  46.7 km/h 82 % 0.00 in /  0 mm
02:48 13.5 °F /  -10.3 °C 9.3 °F /  -12.6 °C 30.62 in /  1036.8 hPa Calm   29.0 mph /  46.7 km/h 83 % 0.00 in /  0 mm
02:53 13.4 °F /  -10.3 °C 9.2 °F /  -12.7 °C 30.62 in /  1036.8 hPa Calm   29.0 mph /  46.7 km/h 83 % 0.00 in /  0 mm
02:58 13.3 °F /  -10.4 °C 9.1 °F /  -12.7 °C 30.61 in /  1036.5 hPa Calm   29.0 mph /  46.7 km/h 83 % 0.00 in /  0 mm
03:03 13.2 °F /  -10.4 °C 9.0 °F /  -12.8 °C 30.62 in /  1036.8 hPa Calm   29.0 mph /  46.7 km/h 83 % 0.00 in /  0 mm
03:09 13.2 °F /  -10.4 °C 9.3 °F /  -12.6 °C 30.61 in /  1036.5 hPa Calm   29.0 mph /  46.7 km/h 84 % 0.00 in /  0 mm
03:14 13.1 °F /  -10.5 °C 9.2 °F /  -12.7 °C 30.61 in /  1036.5 hPa Calm   29.0 mph /  46.7 km/h 84 % 0.00 in /  0 mm
03:19 13.1 °F /  -10.5 °C 9.2 °F /  -12.7 °C 30.61 in /  1036.5 hPa Calm   29.0 mph /  46.7 km/h 84 % 0.00 in /  0 mm
03:24 13.0 °F /  -10.6 °C 9.1 °F /  -12.7 °C 30.61 in /  1036.5 hPa Calm   29.0 mph /  46.7 km/h 84 % 0.00 in /  0 mm
03:29 12.9 °F /  -10.6 °C 9.0 °F /  -12.8 °C 30.62 in /  1036.8 hPa Calm   29.0 mph /  46.7 km/h 84 % 0.00 in /  0 mm
03:34 12.8 °F /  -10.7 °C 8.9 °F /  -12.8 °C 30.62 in /  1036.8 hPa Calm   29.0 mph /  46.7 km/h 84 % 0.00 in /  0 mm
03:39 12.7 °F /  -10.7 °C 8.8 °F /  -12.9 °C 30.62 in /  1036.8 hPa Calm   29.0 mph /  46.7 km/h 84 % 0.00 in /  0 mm
03:44 12.6 °F /  -10.8 °C 8.9 °F /  -12.8 °C 30.61 in /  1036.5 hPa Calm   29.0 mph /  46.7 km/h 85 % 0.00 in /  0 mm
03:49 12.6 °F /  -10.8 °C 8.9 °F /  -12.8 °C 30.61 in /  1036.5 hPa Calm   29.0 mph /  46.7 km/h 85 % 0.00 in /  0 mm
03:54 12.6 °F /  -10.8 °C 8.9 °F /  -12.8 °C 30.61 in /  1036.5 hPa Calm   1.0 mph /  1.6 km/h 85 % 0.00 in /  0 mm
03:59 12.6 °F /  -10.8 °C 9.2 °F /  -12.7 °C 30.61 in /  1036.5 hPa Calm   29.0 mph /  46.7 km/h 86 % 0.00 in /  0 mm
04:04 12.6 °F /  -10.8 °C 9.2 °F /  -12.7 °C 30.60 in /  1036.1 hPa Calm   1.0 mph /  1.6 km/h 86 % 0.00 in /  0 mm
04:09 12.7 °F /  -10.7 °C 9.3 °F /  -12.6 °C 30.60 in /  1036.1 hPa Calm   29.0 mph /  46.7 km/h 86 % 0.00 in /  0 mm
04:14 12.7 °F /  -10.7 °C 9.3 °F /  -12.6 °C 30.61 in /  1036.5 hPa Calm     86 % 0.00 in /  0 mm
04:19 12.7 °F /  -10.7 °C 9.3 °F /  -12.6 °C 30.60 in /  1036.1 hPa Calm   1.0 mph /  1.6 km/h 86 % 0.00 in /  0 mm
04:24 12.7 °F /  -10.7 °C 9.3 °F /  -12.6 °C 30.61 in /  1036.5 hPa Calm   1.0 mph /  1.6 km/h 86 % 0.00 in /  0 mm
04:29 12.7 °F /  -10.7 °C 9.3 °F /  -12.6 °C 30.61 in /  1036.5 hPa WSW 0.1 mph /  0.2 km/h 29.0 mph /  46.7 km/h 86 % 0.00 in /  0 mm
04:34 12.8 °F /  -10.7 °C 9.4 °F /  -12.6 °C 30.61 in /  1036.5 hPa Calm     86 % 0.00 in /  0 mm
04:39 12.8 °F /  -10.7 °C 9.7 °F /  -12.4 °C 30.61 in /  1036.5 hPa Calm     87 % 0.00 in /  0 mm
04:44 12.8 °F /  -10.7 °C 9.7 °F /  -12.4 °C 30.60 in /  1036.1 hPa Calm     87 % 0.00 in /  0 mm
04:49 12.9 °F /  -10.6 °C 9.8 °F /  -12.3 °C 30.61 in /  1036.5 hPa Calm   1.0 mph /  1.6 km/h 87 % 0.00 in /  0 mm
04:54 13.0 °F /  -10.6 °C 9.9 °F /  -12.3 °C 30.61 in /  1036.5 hPa Calm     87 % 0.00 in /  0 mm
04:59 13.1 °F /  -10.5 °C 10.0 °F /  -12.2 °C 30.62 in /  1036.8 hPa WSW 0.7 mph /  1.1 km/h 29.0 mph /  46.7 km/h 87 % 0.00 in /  0 mm
05:04 13.1 °F /  -10.5 °C 10.0 °F /  -12.2 °C 30.62 in /  1036.8 hPa Calm   29.0 mph /  46.7 km/h 87 % 0.00 in /  0 mm
05:09 13.2 °F /  -10.4 °C 10.1 °F /  -12.2 °C 30.62 in /  1036.8 hPa WSW 0.1 mph /  0.2 km/h 29.0 mph /  46.7 km/h 87 % 0.00 in /  0 mm
05:14 13.3 °F /  -10.4 °C 10.2 °F /  -12.1 °C 30.61 in /  1036.5 hPa Calm   29.0 mph /  46.7 km/h 87 % 0.00 in /  0 mm
05:19 13.3 °F /  -10.4 °C 10.2 °F /  -12.1 °C 30.61 in /  1036.5 hPa Calm   29.0 mph /  46.7 km/h 87 % 0.00 in /  0 mm
05:24 13.4 °F /  -10.3 °C 10.3 °F /  -12.1 °C 30.62 in /  1036.8 hPa Calm   29.0 mph /  46.7 km/h 87 % 0.00 in /  0 mm
05:29 13.4 °F /  -10.3 °C 10.3 °F /  -12.1 °C 30.61 in /  1036.5 hPa Calm   29.0 mph /  46.7 km/h 87 % 0.00 in /  0 mm
05:34 13.4 °F /  -10.3 °C 10.3 °F /  -12.1 °C 30.61 in /  1036.5 hPa Calm   29.0 mph /  46.7 km/h 87 % 0.00 in /  0 mm
05:39 13.5 °F /  -10.3 °C 10.6 °F /  -11.9 °C 30.61 in /  1036.5 hPa Calm   29.0 mph /  46.7 km/h 88 % 0.00 in /  0 mm
05:45 13.6 °F /  -10.2 °C 10.7 °F /  -11.8 °C 30.61 in /  1036.5 hPa Calm   29.0 mph /  46.7 km/h 88 % 0.00 in /  0 mm
05:50 13.7 °F /  -10.2 °C 10.8 °F /  -11.8 °C 30.62 in /  1036.8 hPa Calm   29.0 mph /  46.7 km/h 88 % 0.00 in /  0 mm
05:55 13.8 °F /  -10.1 °C 10.9 °F /  -11.7 °C 30.62 in /  1036.8 hPa WSW 0.2 mph /  0.3 km/h 29.0 mph /  46.7 km/h 88 % 0.00 in /  0 mm
06:00 14.0 °F /  -10 °C 11.1 °F /  -11.6 °C 30.62 in /  1036.8 hPa Calm   29.0 mph /  46.7 km/h 88 % 0.00 in /  0 mm
06:05 14.0 °F /  -10 °C 11.1 °F /  -11.6 °C 30.61 in /  1036.5 hPa Calm   29.0 mph /  46.7 km/h 88 % 0.00 in /  0 mm
06:10 14.2 °F /  -9.9 °C 11.3 °F /  -11.5 °C 30.61 in /  1036.5 hPa Calm   29.0 mph /  46.7 km/h 88 % 0.00 in /  0 mm
06:15 14.2 °F /  -9.9 °C 11.3 °F /  -11.5 °C 30.62 in /  1036.8 hPa Calm   29.0 mph /  46.7 km/h 88 % 0.00 in /  0 mm
06:20 14.2 °F /  -9.9 °C 11.3 °F /  -11.5 °C 30.62 in /  1036.8 hPa Calm   29.0 mph /  46.7 km/h 88 % 0.00 in /  0 mm
06:25 14.3 °F /  -9.8 °C 11.4 °F /  -11.4 °C 30.62 in /  1036.8 hPa Calm   29.0 mph /  46.7 km/h 88 % 0.00 in /  0 mm
06:30 14.3 °F /  -9.8 °C 11.4 °F /  -11.4 °C 30.62 in /  1036.8 hPa Calm   29.0 mph /  46.7 km/h 88 % 0.00 in /  0 mm
06:35 14.3 °F /  -9.8 °C 11.4 °F /  -11.4 °C 30.62 in /  1036.8 hPa Calm   29.0 mph /  46.7 km/h 88 % 0.00 in /  0 mm
06:40 14.4 °F /  -9.8 °C 11.8 °F /  -11.2 °C 30.62 in /  1036.8 hPa Calm   29.0 mph /  46.7 km/h 89 % 0.00 in /  0 mm
06:45 14.4 °F /  -9.8 °C 11.8 °F /  -11.2 °C 30.62 in /  1036.8 hPa Calm   29.0 mph /  46.7 km/h 89 % 0.00 in /  0 mm
06:50 14.4 °F /  -9.8 °C 11.8 °F /  -11.2 °C 30.62 in /  1036.8 hPa Calm   29.0 mph /  46.7 km/h 89 % 0.00 in /  0 mm
06:56 14.5 °F /  -9.7 °C 11.9 °F /  -11.2 °C 30.62 in /  1036.8 hPa Calm   29.0 mph /  46.7 km/h 89 % 0.00 in /  0 mm
07:01 14.6 °F /  -9.7 °C 11.9 °F /  -11.2 °C 30.61 in /  1036.5 hPa Calm   29.0 mph /  46.7 km/h 89 % 0.00 in /  0 mm
07:06 14.7 °F /  -9.6 °C 12.0 °F /  -11.1 °C 30.61 in /  1036.5 hPa Calm   29.0 mph /  46.7 km/h 89 % 0.00 in /  0 mm
07:11 14.7 °F /  -9.6 °C 12.0 °F /  -11.1 °C 30.61 in /  1036.5 hPa Calm   29.0 mph /  46.7 km/h 89 % 0.00 in /  0 mm
07:16 14.8 °F /  -9.6 °C 12.1 °F /  -11.1 °C 30.61 in /  1036.5 hPa Calm   29.0 mph /  46.7 km/h 89 % 0.00 in /  0 mm
07:21 14.9 °F /  -9.5 °C 12.2 °F /  -11 °C 30.60 in /  1036.1 hPa Calm   29.0 mph /  46.7 km/h 89 % 0.00 in /  0 mm
07:26 15.0 °F /  -9.4 °C 12.3 °F /  -10.9 °C 30.61 in /  1036.5 hPa Calm   29.0 mph /  46.7 km/h 89 % 0.00 in /  0 mm
07:31 15.1 °F /  -9.4 °C 12.4 °F /  -10.9 °C 30.61 in /  1036.5 hPa Calm   29.0 mph /  46.7 km/h 89 % 0.00 in /  0 mm
07:36 15.2 °F /  -9.3 °C 12.5 °F /  -10.8 °C 30.61 in /  1036.5 hPa Calm   29.0 mph /  46.7 km/h 89 % 0.00 in /  0 mm
07:41 15.3 °F /  -9.3 °C 12.6 °F /  -10.8 °C 30.61 in /  1036.5 hPa Calm   29.0 mph /  46.7 km/h 89 % 0.00 in /  0 mm
07:46 15.5 °F /  -9.2 °C 12.8 °F /  -10.7 °C 30.62 in /  1036.8 hPa WSW 0.3 mph /  0.5 km/h 29.0 mph /  46.7 km/h 89 % 0.00 in /  0 mm
07:51 15.6 °F /  -9.1 °C 13.2 °F /  -10.4 °C 30.62 in /  1036.8 hPa Calm   29.0 mph /  46.7 km/h 90 % 0.00 in /  0 mm
07:56 15.8 °F /  -9 °C 13.4 °F /  -10.3 °C 30.62 in /  1036.8 hPa Calm   29.0 mph /  46.7 km/h 90 % 0.00 in /  0 mm
08:01 16.1 °F /  -8.8 °C 13.7 °F /  -10.2 °C 30.62 in /  1036.8 hPa Calm   29.0 mph /  46.7 km/h 90 % 0.00 in /  0 mm
08:06 16.3 °F /  -8.7 °C 13.9 °F /  -10.1 °C 30.62 in /  1036.8 hPa Calm   29.0 mph /  46.7 km/h 90 % 0.00 in /  0 mm
08:11 16.6 °F /  -8.6 °C 14.2 °F /  -9.9 °C 30.62 in /  1036.8 hPa Calm   29.0 mph /  46.7 km/h 90 % 0.00 in /  0 mm
08:16 16.8 °F /  -8.4 °C 14.4 °F /  -9.8 °C 30.62 in /  1036.8 hPa Calm   29.0 mph /  46.7 km/h 90 % 0.00 in /  0 mm
08:22 17.1 °F /  -8.3 °C 14.9 °F /  -9.5 °C 30.62 in /  1036.8 hPa Calm   29.0 mph /  46.7 km/h 91 % 0.00 in /  0 mm
08:27 17.3 °F /  -8.2 °C 15.1 °F /  -9.4 °C 30.61 in /  1036.5 hPa Calm   29.0 mph /  46.7 km/h 91 % 0.00 in /  0 mm
08:32 17.6 °F /  -8 °C 15.4 °F /  -9.2 °C 30.61 in /  1036.5 hPa Calm   29.0 mph /  46.7 km/h 91 % 0.00 in /  0 mm
08:37 18.0 °F /  -7.8 °C 15.8 °F /  -9 °C 30.61 in /  1036.5 hPa Calm   29.0 mph /  46.7 km/h 91 % 0.00 in /  0 mm
08:42 18.3 °F /  -7.6 °C 16.1 °F /  -8.8 °C 30.61 in /  1036.5 hPa Calm   29.0 mph /  46.7 km/h 91 % 0.00 in /  0 mm
08:47 18.6 °F /  -7.4 °C 16.4 °F /  -8.7 °C 30.62 in /  1036.8 hPa Calm   29.0 mph /  46.7 km/h 91 % 0.00 in /  0 mm
08:52 19.0 °F /  -7.2 °C 16.8 °F /  -8.4 °C 30.62 in /  1036.8 hPa Calm   29.0 mph /  46.7 km/h 91 % 0.00 in /  0 mm
08:57 19.4 °F /  -7 °C 17.2 °F /  -8.2 °C 30.62 in /  1036.8 hPa Calm   29.0 mph /  46.7 km/h 91 % 0.00 in /  0 mm
09:02 19.8 °F /  -6.8 °C 17.6 °F /  -8 °C 30.61 in /  1036.5 hPa Calm   29.0 mph /  46.7 km/h 91 % 0.00 in /  0 mm
09:07 20.2 °F /  -6.6 °C 18.2 °F /  -7.7 °C 30.61 in /  1036.5 hPa Calm   29.0 mph /  46.7 km/h 92 % 0.00 in /  0 mm
09:12 20.7 °F /  -6.3 °C 18.7 °F /  -7.4 °C 30.61 in /  1036.5 hPa Calm   29.0 mph /  46.7 km/h 92 % 0.00 in /  0 mm
09:17 21.4 °F /  -5.9 °C 19.4 °F /  -7 °C 30.61 in /  1036.5 hPa Calm   29.0 mph /  46.7 km/h 92 % 0.00 in /  0 mm
09:22 22.2 °F /  -5.4 °C 20.2 °F /  -6.6 °C 30.62 in /  1036.8 hPa WSW 1.9 mph /  3.1 km/h 29.0 mph /  46.7 km/h 92 % 0.00 in /  0 mm
09:27 23.1 °F /  -4.9 °C 20.9 °F /  -6.2 °C 30.62 in /  1036.8 hPa West 0.5 mph /  0.8 km/h 29.0 mph /  46.7 km/h 91 % 0.00 in /  0 mm
09:32 24.1 °F /  -4.4 °C 21.1 °F /  -6.1 °C 30.62 in /  1036.8 hPa West 1.5 mph /  2.4 km/h 29.0 mph /  46.7 km/h 88 % 0.00 in /  0 mm
09:37 24.9 °F /  -3.9 °C 21.0 °F /  -6.1 °C 30.62 in /  1036.8 hPa WNW 1.7 mph /  2.7 km/h 29.0 mph /  46.7 km/h 85 % 0.00 in /  0 mm
09:42 25.8 °F /  -3.4 °C 20.8 °F /  -6.2 °C 30.62 in /  1036.8 hPa West 1.5 mph /  2.4 km/h 29.0 mph /  46.7 km/h 81 % 0.00 in /  0 mm
09:47 26.5 °F /  -3.1 °C 20.9 °F /  -6.2 °C 30.62 in /  1036.8 hPa West 1.9 mph /  3.1 km/h 29.0 mph /  46.7 km/h 79 % 0.00 in /  0 mm
09:52 27.0 °F /  -2.8 °C 20.7 °F /  -6.3 °C 30.62 in /  1036.8 hPa West 1.5 mph /  2.4 km/h 29.0 mph /  46.7 km/h 77 % 0.00 in /  0 mm
09:58 27.5 °F /  -2.5 °C 20.9 °F /  -6.2 °C 30.62 in /  1036.8 hPa Calm   29.0 mph /  46.7 km/h 76 % 0.00 in /  0 mm
10:03 27.9 °F /  -2.3 °C 21.0 °F /  -6.1 °C 30.62 in /  1036.8 hPa Calm   29.0 mph /  46.7 km/h 75 % 0.00 in /  0 mm
10:08 28.3 °F /  -2.1 °C 21.1 °F /  -6.1 °C 30.63 in /  1037.1 hPa West 0.1 mph /  0.2 km/h 29.0 mph /  46.7 km/h 74 % 0.00 in /  0 mm
10:13 28.8 °F /  -1.8 °C 21.6 °F /  -5.8 °C 30.62 in /  1036.8 hPa West 0.2 mph /  0.3 km/h 29.0 mph /  46.7 km/h 74 % 0.00 in /  0 mm
10:18 29.0 °F /  -1.7 °C 21.4 °F /  -5.9 °C 30.62 in /  1036.8 hPa Calm   29.0 mph /  46.7 km/h 73 % 0.00 in /  0 mm
10:23 29.3 °F /  -1.5 °C 21.7 °F /  -5.7 °C 30.62 in /  1036.8 hPa Calm   29.0 mph /  46.7 km/h 73 % 0.00 in /  0 mm
10:28 29.4 °F /  -1.4 °C 21.5 °F /  -5.8 °C 30.62 in /  1036.8 hPa West 0.3 mph /  0.5 km/h 29.0 mph /  46.7 km/h 72 % 0.00 in /  0 mm
10:33 29.6 °F /  -1.3 °C 21.7 °F /  -5.7 °C 30.61 in /  1036.5 hPa WNW 1.0 mph /  1.6 km/h 29.0 mph /  46.7 km/h 72 % 0.00 in /  0 mm
10:38 29.6 °F /  -1.3 °C 21.7 °F /  -5.7 °C 30.61 in /  1036.5 hPa WNW 0.6 mph /  1 km/h 29.0 mph /  46.7 km/h 72 % 0.00 in /  0 mm
10:43 29.7 °F /  -1.3 °C 22.1 °F /  -5.5 °C 30.61 in /  1036.5 hPa NE 1.0 mph /  1.6 km/h 29.0 mph /  46.7 km/h 73 % 0.00 in /  0 mm
10:48 29.7 °F /  -1.3 °C 22.1 °F /  -5.5 °C 30.61 in /  1036.5 hPa NE 0.8 mph /  1.3 km/h 29.0 mph /  46.7 km/h 73 % 0.00 in /  0 mm
10:53 29.8 °F /  -1.2 °C 22.2 °F /  -5.4 °C 30.60 in /  1036.1 hPa NE 0.5 mph /  0.8 km/h 29.0 mph /  46.7 km/h 73 % 0.00 in /  0 mm
10:58 30.0 °F /  -1.1 °C 22.4 °F /  -5.3 °C 30.60 in /  1036.1 hPa ENE 2.0 mph /  3.2 km/h 29.0 mph /  46.7 km/h 73 % 0.00 in /  0 mm
11:03 30.0 °F /  -1.1 °C 22.4 °F /  -5.3 °C 30.60 in /  1036.1 hPa ENE 1.1 mph /  1.8 km/h 29.0 mph /  46.7 km/h 73 % 0.00 in /  0 mm
11:09 30.2 °F /  -1 °C 22.9 °F /  -5.1 °C 30.59 in /  1035.8 hPa East 2.4 mph /  3.9 km/h 29.0 mph /  46.7 km/h 74 % 0.00 in /  0 mm
11:14 30.1 °F /  -1.1 °C 22.5 °F /  -5.3 °C 30.58 in /  1035.4 hPa East 1.1 mph /  1.8 km/h 29.0 mph /  46.7 km/h 73 % 0.00 in /  0 mm
11:19 30.3 °F /  -0.9 °C 23.0 °F /  -5 °C 30.58 in /  1035.4 hPa East 1.3 mph /  2.1 km/h 29.0 mph /  46.7 km/h 74 % 0.00 in /  0 mm
11:24 30.4 °F /  -0.9 °C 23.1 °F /  -4.9 °C 30.57 in /  1035.1 hPa ENE 2.8 mph /  4.5 km/h 29.0 mph /  46.7 km/h 74 % 0.00 in /  0 mm
11:29 30.5 °F /  -0.8 °C 23.2 °F /  -4.9 °C 30.57 in /  1035.1 hPa ENE 2.4 mph /  3.9 km/h 29.0 mph /  46.7 km/h 74 % 0.00 in /  0 mm
11:34 30.6 °F /  -0.8 °C 23.3 °F /  -4.8 °C 30.56 in /  1034.8 hPa ENE 2.0 mph /  3.2 km/h 4.0 mph /  6.4 km/h 74 % 0.00 in /  0 mm
11:39 30.8 °F /  -0.7 °C 23.8 °F /  -4.6 °C 30.56 in /  1034.8 hPa ENE 2.0 mph /  3.2 km/h 5.0 mph /  8 km/h 75 % 0.00 in /  0 mm
11:44 31.0 °F /  -0.6 °C 24.0 °F /  -4.4 °C 30.55 in /  1034.4 hPa ENE 1.0 mph /  1.6 km/h 5.0 mph /  8 km/h 75 % 0.00 in /  0 mm
11:49 31.2 °F /  -0.4 °C 24.2 °F /  -4.3 °C 30.55 in /  1034.4 hPa ENE 1.0 mph /  1.6 km/h 3.0 mph /  4.8 km/h 75 % 0.00 in /  0 mm
11:54 31.2 °F /  -0.4 °C 24.2 °F /  -4.3 °C 30.55 in /  1034.4 hPa ENE 2.0 mph /  3.2 km/h 5.0 mph /  8 km/h 75 % 0.00 in /  0 mm
11:59 31.3 °F /  -0.4 °C 24.3 °F /  -4.3 °C 30.54 in /  1034.1 hPa ENE 0.7 mph /  1.1 km/h 29.0 mph /  46.7 km/h 75 % 0.00 in /  0 mm
12:04 31.5 °F /  -0.3 °C 24.5 °F /  -4.2 °C 30.54 in /  1034.1 hPa ENE 0.8 mph /  1.3 km/h 29.0 mph /  46.7 km/h 75 % 0.00 in /  0 mm
12:09 31.7 °F /  -0.2 °C 25.0 °F /  -3.9 °C 30.53 in /  1033.7 hPa ENE 0.7 mph /  1.1 km/h 29.0 mph /  46.7 km/h 76 % 0.00 in /  0 mm
12:14 32.1 °F /  0.1 °C 25.7 °F /  -3.5 °C 30.53 in /  1033.7 hPa SE 1.8 mph /  2.9 km/h 29.0 mph /  46.7 km/h 77 % 0.00 in /  0 mm
12:19 32.6 °F /  0.3 °C 26.2 °F /  -3.2 °C 30.53 in /  1033.7 hPa SSE 4.5 mph /  7.2 km/h 29.0 mph /  46.7 km/h 77 % 0.00 in /  0 mm
12:24 33.2 °F /  0.7 °C 26.1 °F /  -3.3 °C 30.52 in /  1033.4 hPa ESE 2.1 mph /  3.4 km/h 29.0 mph /  46.7 km/h 75 % 0.00 in /  0 mm
12:29 33.6 °F /  0.9 °C 26.5 °F /  -3.1 °C 30.52 in /  1033.4 hPa South 2.6 mph /  4.2 km/h 29.0 mph /  46.7 km/h 75 % 0.00 in /  0 mm
12:34 33.9 °F /  1.1 °C 26.8 °F /  -2.9 °C 30.52 in /  1033.4 hPa SSE 0.1 mph /  0.2 km/h 29.0 mph /  46.7 km/h 75 % 0.00 in /  0 mm
12:39 34.4 °F /  1.3 °C 27.3 °F /  -2.6 °C 30.52 in /  1033.4 hPa SSE 1.9 mph /  3.1 km/h 29.0 mph /  46.7 km/h 75 % 0.00 in /  0 mm
12:45 34.9 °F /  1.6 °C 27.8 °F /  -2.3 °C 30.51 in /  1033.1 hPa SSE 2.5 mph /  4 km/h 29.0 mph /  46.7 km/h 75 % 0.00 in /  0 mm
12:50 35.2 °F /  1.8 °C 27.7 °F /  -2.4 °C 30.51 in /  1033.1 hPa SE 2.9 mph /  4.7 km/h 29.0 mph /  46.7 km/h 74 % 0.00 in /  0 mm
12:55 35.5 °F /  1.9 °C 28.0 °F /  -2.2 °C 30.50 in /  1032.7 hPa SSE 4.3 mph /  6.9 km/h 29.0 mph /  46.7 km/h 74 % 0.00 in /  0 mm
13:00 35.7 °F /  2.1 °C 28.2 °F /  -2.1 °C 30.50 in /  1032.7 hPa SE 1.6 mph /  2.6 km/h 29.0 mph /  46.7 km/h 74 % 0.00 in /  0 mm
13:05 36.1 °F /  2.3 °C 28.6 °F /  -1.9 °C 30.50 in /  1032.7 hPa SE 4.6 mph /  7.4 km/h 29.0 mph /  46.7 km/h 74 % 0.00 in /  0 mm
13:10 36.5 °F /  2.5 °C 29.0 °F /  -1.7 °C 30.50 in /  1032.7 hPa SSE 2.9 mph /  4.7 km/h 29.0 mph /  46.7 km/h 74 % 0.00 in /  0 mm
13:15 36.9 °F /  2.7 °C 29.7 °F /  -1.3 °C 30.50 in /  1032.7 hPa Calm   29.0 mph /  46.7 km/h 75 % 0.00 in /  0 mm
13:20 37.1 °F /  2.8 °C 29.2 °F /  -1.6 °C 30.49 in /  1032.4 hPa ENE 2.0 mph /  3.2 km/h 29.0 mph /  46.7 km/h 73 % 0.00 in /  0 mm
13:25 37.1 °F /  2.8 °C 29.6 °F /  -1.3 °C 30.49 in /  1032.4 hPa East 4.7 mph /  7.6 km/h 29.0 mph /  46.7 km/h 74 % 0.00 in /  0 mm
13:26 37.1 °F /  2.8 °C 29.6 °F /  -1.3 °C 30.49 in /  1032.4 hPa East 2.7 mph /  4.3 km/h 29.0 mph /  46.7 km/h 74 % 0.00 in /  0 mm
13:31 36.8 °F /  2.7 °C 29.3 °F /  -1.5 °C 30.49 in /  1032.4 hPa East 1.8 mph /  2.9 km/h 29.0 mph /  46.7 km/h 74 % 0.00 in /  0 mm
13:36 36.6 °F /  2.6 °C 29.1 °F /  -1.6 °C 30.49 in /  1032.4 hPa ENE 2.7 mph /  4.3 km/h 29.0 mph /  46.7 km/h 74 % 0.00 in /  0 mm
13:41 36.5 °F /  2.5 °C 29.3 °F /  -1.5 °C 30.48 in /  1032.1 hPa East 2.7 mph /  4.3 km/h 29.0 mph /  46.7 km/h 75 % 0.00 in /  0 mm
13:47 36.2 °F /  2.3 °C 29.0 °F /  -1.7 °C 30.48 in /  1032.1 hPa East 1.8 mph /  2.9 km/h 29.0 mph /  46.7 km/h 75 % 0.00 in /  0 mm
13:52 36.1 °F /  2.3 °C 28.9 °F /  -1.7 °C 30.48 in /  1032.1 hPa ENE 2.7 mph /  4.3 km/h 29.0 mph /  46.7 km/h 75 % 0.00 in /  0 mm
13:57 35.9 °F /  2.2 °C 29.1 °F /  -1.6 °C 30.48 in /  1032.1 hPa ENE 2.5 mph /  4 km/h 29.0 mph /  46.7 km/h 76 % 0.00 in /  0 mm
14:02 35.9 °F /  2.2 °C 29.1 °F /  -1.6 °C 30.48 in /  1032.1 hPa ENE 2.3 mph /  3.7 km/h 29.0 mph /  46.7 km/h 76 % 0.00 in /  0 mm
14:07 35.8 °F /  2.1 °C 29.3 °F /  -1.5 °C 30.47 in /  1031.7 hPa ENE 2.4 mph /  3.9 km/h 29.0 mph /  46.7 km/h 77 % 0.00 in /  0 mm
14:12 35.8 °F /  2.1 °C 29.3 °F /  -1.5 °C 30.47 in /  1031.7 hPa ENE 1.8 mph /  2.9 km/h 29.0 mph /  46.7 km/h 77 % 0.00 in /  0 mm
14:17 35.7 °F /  2.1 °C 29.2 °F /  -1.6 °C 30.47 in /  1031.7 hPa ENE 3.1 mph /  5 km/h 29.0 mph /  46.7 km/h 77 % 0.00 in /  0 mm
14:22 35.6 °F /  2 °C 29.4 °F /  -1.4 °C 30.47 in /  1031.7 hPa ENE 2.0 mph /  3.2 km/h 29.0 mph /  46.7 km/h 78 % 0.00 in /  0 mm
14:27 35.5 °F /  1.9 °C 29.6 °F /  -1.3 °C 30.47 in /  1031.7 hPa East 1.5 mph /  2.4 km/h 29.0 mph /  46.7 km/h 79 % 0.00 in /  0 mm
14:32 35.4 °F /  1.9 °C 29.5 °F /  -1.4 °C 30.47 in /  1031.7 hPa ENE 2.1 mph /  3.4 km/h 29.0 mph /  46.7 km/h 79 % 0.00 in /  0 mm
14:37 35.3 °F /  1.8 °C 29.4 °F /  -1.4 °C 30.47 in /  1031.7 hPa ENE 2.8 mph /  4.5 km/h 29.0 mph /  46.7 km/h 79 % 0.00 in /  0 mm
14:42 35.2 °F /  1.8 °C 29.6 °F /  -1.3 °C 30.47 in /  1031.7 hPa ENE 1.6 mph /  2.6 km/h 29.0 mph /  46.7 km/h 80 % 0.00 in /  0 mm
14:47 35.1 °F /  1.7 °C 29.6 °F /  -1.3 °C 30.47 in /  1031.7 hPa ENE 2.9 mph /  4.7 km/h 29.0 mph /  46.7 km/h 80 % 0.00 in /  0 mm
14:52 35.0 °F /  1.7 °C 29.8 °F /  -1.2 °C 30.47 in /  1031.7 hPa ENE 2.4 mph /  3.9 km/h 29.0 mph /  46.7 km/h 81 % 0.00 in /  0 mm
14:57 35.0 °F /  1.7 °C 30.1 °F /  -1.1 °C 30.46 in /  1031.4 hPa ENE 0.6 mph /  1 km/h 29.0 mph /  46.7 km/h 82 % 0.00 in /  0 mm
15:03 35.0 °F /  1.7 °C 30.1 °F /  -1.1 °C 30.46 in /  1031.4 hPa ENE 3.4 mph /  5.5 km/h 29.0 mph /  46.7 km/h 82 % 0.00 in /  0 mm
15:08 35.0 °F /  1.7 °C 30.1 °F /  -1.1 °C 30.46 in /  1031.4 hPa ENE 0.9 mph /  1.4 km/h 29.0 mph /  46.7 km/h 82 % 0.00 in /  0 mm
15:13 35.1 °F /  1.7 °C 30.5 °F /  -0.8 °C 30.45 in /  1031 hPa ENE 1.7 mph /  2.7 km/h 29.0 mph /  46.7 km/h 83 % 0.00 in /  0 mm
15:18 35.2 °F /  1.8 °C 30.6 °F /  -0.8 °C 30.44 in /  1030.7 hPa ENE 1.8 mph /  2.9 km/h 29.0 mph /  46.7 km/h 83 % 0.00 in /  0 mm
15:23 35.3 °F /  1.8 °C 30.7 °F /  -0.7 °C 30.43 in /  1030.4 hPa ENE 1.9 mph /  3.1 km/h 29.0 mph /  46.7 km/h 83 % 0.00 in /  0 mm
15:28 35.3 °F /  1.8 °C 30.9 °F /  -0.6 °C 30.43 in /  1030.4 hPa ENE 2.7 mph /  4.3 km/h 29.0 mph /  46.7 km/h 84 % 0.00 in /  0 mm
15:33 35.3 °F /  1.8 °C 30.9 °F /  -0.6 °C 30.42 in /  1030 hPa East 2.6 mph /  4.2 km/h 29.0 mph /  46.7 km/h 84 % 0.00 in /  0 mm
15:38 35.3 °F /  1.8 °C 30.9 °F /  -0.6 °C 30.42 in /  1030 hPa East 1.8 mph /  2.9 km/h 29.0 mph /  46.7 km/h 84 % 0.00 in /  0 mm
15:43 35.3 °F /  1.8 °C 30.9 °F /  -0.6 °C 30.42 in /  1030 hPa East 1.7 mph /  2.7 km/h 29.0 mph /  46.7 km/h 84 % 0.00 in /  0 mm
15:48 35.3 °F /  1.8 °C 31.2 °F /  -0.4 °C 30.43 in /  1030.4 hPa Calm   29.0 mph /  46.7 km/h 85 % 0.00 in /  0 mm
15:53 35.3 °F /  1.8 °C 31.2 °F /  -0.4 °C 30.43 in /  1030.4 hPa Calm   29.0 mph /  46.7 km/h 85 % 0.00 in /  0 mm
15:58 35.3 °F /  1.8 °C 31.2 °F /  -0.4 °C 30.44 in /  1030.7 hPa East 0.9 mph /  1.4 km/h 29.0 mph /  46.7 km/h 85 % 0.00 in /  0 mm
16:04 35.3 °F /  1.8 °C 31.2 °F /  -0.4 °C 30.44 in /  1030.7 hPa Calm   29.0 mph /  46.7 km/h 85 % 0.00 in /  0 mm
16:09 35.4 °F /  1.9 °C 31.3 °F /  -0.4 °C 30.44 in /  1030.7 hPa Calm   29.0 mph /  46.7 km/h 85 % 0.00 in /  0 mm
16:14 35.4 °F /  1.9 °C 31.3 °F /  -0.4 °C 30.44 in /  1030.7 hPa Calm   29.0 mph /  46.7 km/h 85 % 0.00 in /  0 mm
16:19 35.4 °F /  1.9 °C 31.3 °F /  -0.4 °C 30.44 in /  1030.7 hPa Calm   29.0 mph /  46.7 km/h 85 % 0.00 in /  0 mm
16:24 35.4 °F /  1.9 °C 31.3 °F /  -0.4 °C 30.44 in /  1030.7 hPa Calm   29.0 mph /  46.7 km/h 85 % 0.00 in /  0 mm
16:29 35.4 °F /  1.9 °C 31.3 °F /  -0.4 °C 30.43 in /  1030.4 hPa Calm   29.0 mph /  46.7 km/h 85 % 0.00 in /  0 mm
16:34 35.4 °F /  1.9 °C 31.3 °F /  -0.4 °C 30.43 in /  1030.4 hPa Calm   29.0 mph /  46.7 km/h 85 % 0.00 in /  0 mm
16:39 35.3 °F /  1.8 °C 31.2 °F /  -0.4 °C 30.43 in /  1030.4 hPa Calm   29.0 mph /  46.7 km/h 85 % 0.00 in /  0 mm
16:44 35.3 °F /  1.8 °C 31.2 °F /  -0.4 °C 30.43 in /  1030.4 hPa Calm   29.0 mph /  46.7 km/h 85 % 0.00 in /  0 mm
16:49 35.3 °F /  1.8 °C 31.2 °F /  -0.4 °C 30.42 in /  1030 hPa Calm   29.0 mph /  46.7 km/h 85 % 0.00 in /  0 mm
16:54 35.3 °F /  1.8 °C 31.2 °F /  -0.4 °C 30.42 in /  1030 hPa Calm     85 % 0.00 in /  0 mm
17:05 35.2 °F /  1.8 °C 31.1 °F /  -0.5 °C 30.42 in /  1030 hPa East 2.0 mph /  3.2 km/h 2.3 mph /  3.7 km/h 85 % 0.00 in /  0 mm
17:10 35.2 °F /  1.8 °C 31.1 °F /  -0.5 °C 30.42 in /  1030 hPa Calm     85 % 0.00 in /  0 mm
17:15 35.1 °F /  1.7 °C 31.0 °F /  -0.6 °C 30.41 in /  1029.7 hPa Calm     85 % 0.00 in /  0 mm
17:20 35.0 °F /  1.7 °C 30.9 °F /  -0.6 °C 30.41 in /  1029.7 hPa Calm     85 % 0.00 in /  0 mm
17:25 35.0 °F /  1.7 °C 31.2 °F /  -0.4 °C 30.41 in /  1029.7 hPa Calm     86 % 0.00 in /  0 mm
17:30 35.0 °F /  1.7 °C 31.2 °F /  -0.4 °C 30.41 in /  1029.7 hPa Calm     86 % 0.00 in /  0 mm
17:35 34.9 °F /  1.6 °C 31.1 °F /  -0.5 °C 30.41 in /  1029.7 hPa Calm     86 % 0.00 in /  0 mm
17:40 34.9 °F /  1.6 °C 31.1 °F /  -0.5 °C 30.41 in /  1029.7 hPa Calm     86 % 0.00 in /  0 mm
17:45 34.8 °F /  1.6 °C 31.0 °F /  -0.6 °C 30.41 in /  1029.7 hPa Calm     86 % 0.00 in /  0 mm
17:50 34.8 °F /  1.6 °C 31.0 °F /  -0.6 °C 30.41 in /  1029.7 hPa Calm     86 % 0.00 in /  0 mm
17:55 34.7 °F /  1.5 °C 30.9 °F /  -0.6 °C 30.41 in /  1029.7 hPa Calm     86 % 0.00 in /  0 mm
18:00 34.7 °F /  1.5 °C 30.9 °F /  -0.6 °C 30.40 in /  1029.3 hPa Calm     86 % 0.00 in /  0 mm
18:05 34.6 °F /  1.4 °C 30.8 °F /  -0.7 °C 30.40 in /  1029.3 hPa Calm     86 % 0.00 in /  0 mm
18:10 34.6 °F /  1.4 °C 30.8 °F /  -0.7 °C 30.40 in /  1029.3 hPa Calm     86 % 0.00 in /  0 mm
18:15 34.6 °F /  1.4 °C 30.8 °F /  -0.7 °C 30.40 in /  1029.3 hPa Calm     86 % 0.00 in /  0 mm
18:21 34.6 °F /  1.4 °C 30.8 °F /  -0.7 °C 30.40 in /  1029.3 hPa Calm     86 % 0.00 in /  0 mm
18:26 34.5 °F /  1.4 °C 30.7 °F /  -0.7 °C 30.39 in /  1029 hPa Calm     86 % 0.00 in /  0 mm
18:31 34.4 °F /  1.3 °C 30.6 °F /  -0.8 °C 30.39 in /  1029 hPa Calm     86 % 0.00 in /  0 mm
18:36 34.3 °F /  1.3 °C 30.5 °F /  -0.8 °C 30.39 in /  1029 hPa Calm     86 % 0.00 in /  0 mm
18:41 34.3 °F /  1.3 °C 30.8 °F /  -0.7 °C 30.39 in /  1029 hPa Calm     87 % 0.00 in /  0 mm
18:46 34.3 °F /  1.3 °C 30.8 °F /  -0.7 °C 30.39 in /  1029 hPa Calm     87 % 0.00 in /  0 mm
18:51 34.3 °F /  1.3 °C 30.8 °F /  -0.7 °C 30.38 in /  1028.7 hPa Calm     87 % 0.00 in /  0 mm
18:56 34.2 °F /  1.2 °C 30.7 °F /  -0.7 °C 30.38 in /  1028.7 hPa Calm     87 % 0.00 in /  0 mm
19:01 34.2 °F /  1.2 °C 30.7 °F /  -0.7 °C 30.37 in /  1028.3 hPa Calm     87 % 0.00 in /  0 mm
19:06 34.1 °F /  1.2 °C 30.6 °F /  -0.8 °C 30.37 in /  1028.3 hPa Calm     87 % 0.00 in /  0 mm
19:11 34.1 °F /  1.2 °C 30.6 °F /  -0.8 °C 30.37 in /  1028.3 hPa Calm     87 % 0.00 in /  0 mm
19:16 34.1 °F /  1.2 °C 30.9 °F /  -0.6 °C 30.37 in /  1028.3 hPa East 0.5 mph /  0.8 km/h 1.2 mph /  1.9 km/h 88 % 0.00 in /  0 mm
19:21 34.1 °F /  1.2 °C 30.9 °F /  -0.6 °C 30.36 in /  1028 hPa Calm     88 % 0.00 in /  0 mm
19:26 34.1 °F /  1.2 °C 30.9 °F /  -0.6 °C 30.36 in /  1028 hPa Calm   1.2 mph /  1.9 km/h 88 % 0.00 in /  0 mm
19:31 34.1 °F /  1.2 °C 31.2 °F /  -0.4 °C 30.35 in /  1027.7 hPa Calm   1.2 mph /  1.9 km/h 89 % 0.00 in /  0 mm
19:37 34.2 °F /  1.2 °C 31.3 °F /  -0.4 °C 30.35 in /  1027.7 hPa ESE 2.3 mph /  3.7 km/h 3.5 mph /  5.6 km/h 89 % 0.00 in /  0 mm
19:42 34.3 °F /  1.3 °C 31.7 °F /  -0.2 °C 30.35 in /  1027.7 hPa ESE 1.2 mph /  1.9 km/h 2.3 mph /  3.7 km/h 90 % 0.00 in /  0 mm
19:47 34.4 °F /  1.3 °C 31.8 °F /  -0.1 °C 30.34 in /  1027.3 hPa SSE 2.7 mph /  4.3 km/h 3.5 mph /  5.6 km/h 90 % 0.00 in /  0 mm
19:52 34.7 °F /  1.5 °C 32.3 °F /  0.2 °C 30.34 in /  1027.3 hPa SE 2.4 mph /  3.9 km/h 4.0 mph /  6.4 km/h 91 % 0.00 in /  0 mm
19:57 35.1 °F /  1.7 °C 33.0 °F /  0.6 °C 30.33 in /  1027 hPa SSE 3.0 mph /  4.8 km/h 4.6 mph /  7.4 km/h 92 % 0.00 in /  0 mm
20:02 35.6 °F /  2 °C 33.8 °F /  1 °C 30.32 in /  1026.6 hPa SSE 4.2 mph /  6.8 km/h 6.0 mph /  9.7 km/h 93 % 0.00 in /  0 mm
20:07 36.1 °F /  2.3 °C 34.3 °F /  1.3 °C 30.32 in /  1026.6 hPa SSE 3.3 mph /  5.3 km/h 7.0 mph /  11.3 km/h 93 % 0.00 in /  0 mm
20:12 36.4 °F /  2.4 °C 34.6 °F /  1.4 °C 30.32 in /  1026.6 hPa SSE 1.5 mph /  2.4 km/h 3.5 mph /  5.6 km/h 93 % 0.00 in /  0 mm
20:17 36.8 °F /  2.7 °C 35.0 °F /  1.7 °C 30.32 in /  1026.6 hPa SSE 0.7 mph /  1.1 km/h 3.5 mph /  5.6 km/h 93 % 0.00 in /  0 mm
20:22 37.1 °F /  2.8 °C 35.3 °F /  1.8 °C 30.31 in /  1026.3 hPa SSE 2.4 mph /  3.9 km/h 5.8 mph /  9.3 km/h 93 % 0.00 in /  0 mm
20:27 37.3 °F /  2.9 °C 35.5 °F /  1.9 °C 30.32 in /  1026.6 hPa South 2.4 mph /  3.9 km/h 3.5 mph /  5.6 km/h 93 % 0.00 in /  0 mm
20:32 37.6 °F /  3.1 °C 35.8 °F /  2.1 °C 30.32 in /  1026.6 hPa South 2.0 mph /  3.2 km/h 3.5 mph /  5.6 km/h 93 % 0.00 in /  0 mm
20:37 37.9 °F /  3.3 °C 36.1 °F /  2.3 °C 30.31 in /  1026.3 hPa SSE 7.1 mph /  11.4 km/h 11.5 mph /  18.5 km/h 93 % 0.00 in /  0 mm
20:42 38.2 °F /  3.4 °C 36.4 °F /  2.4 °C 30.31 in /  1026.3 hPa South 0.6 mph /  1 km/h 3.5 mph /  5.6 km/h 93 % 0.00 in /  0 mm
20:47 38.4 °F /  3.6 °C 36.6 °F /  2.6 °C 30.31 in /  1026.3 hPa South 2.5 mph /  4 km/h 5.0 mph /  8 km/h 93 % 0.00 in /  0 mm
20:53 38.6 °F /  3.7 °C 36.8 °F /  2.7 °C 30.31 in /  1026.3 hPa South 2.9 mph /  4.7 km/h 5.8 mph /  9.3 km/h 93 % 0.00 in /  0 mm
20:58 38.8 °F /  3.8 °C 36.9 °F /  2.7 °C 30.31 in /  1026.3 hPa SSW 1.8 mph /  2.9 km/h 5.8 mph /  9.3 km/h 93 % 0.00 in /  0 mm
21:03 39.0 °F /  3.9 °C 37.1 °F /  2.8 °C 30.30 in /  1026 hPa SSW 2.7 mph /  4.3 km/h 6.9 mph /  11.1 km/h 93 % 0.00 in /  0 mm
21:08 39.3 °F /  4.1 °C 37.4 °F /  3 °C 30.30 in /  1026 hPa SSE 2.8 mph /  4.5 km/h 5.8 mph /  9.3 km/h 93 % 0.00 in /  0 mm
21:13 39.6 °F /  4.2 °C 37.7 °F /  3.2 °C 30.29 in /  1025.6 hPa South 2.0 mph /  3.2 km/h 6.9 mph /  11.1 km/h 93 % 0.00 in /  0 mm
21:18 39.9 °F /  4.4 °C 38.0 °F /  3.3 °C 30.29 in /  1025.6 hPa SSE 4.7 mph /  7.6 km/h 8.1 mph /  13 km/h 93 % 0.00 in /  0 mm
21:23 40.2 °F /  4.6 °C 38.3 °F /  3.5 °C 30.28 in /  1025.3 hPa South 2.9 mph /  4.7 km/h 8.1 mph /  13 km/h 93 % 0.00 in /  0 mm
21:28 40.5 °F /  4.7 °C 38.6 °F /  3.7 °C 30.28 in /  1025.3 hPa South 4.0 mph /  6.4 km/h 9.2 mph /  14.8 km/h 93 % 0.00 in /  0 mm
21:33 40.7 °F /  4.8 °C 38.6 °F /  3.7 °C 30.27 in /  1024.9 hPa South 3.2 mph /  5.1 km/h 6.9 mph /  11.1 km/h 92 % 0.00 in /  0 mm
21:38 40.9 °F /  4.9 °C 38.8 °F /  3.8 °C 30.27 in /  1024.9 hPa SSE 3.6 mph /  5.8 km/h 6.9 mph /  11.1 km/h 92 % 0.00 in /  0 mm
21:43 41.0 °F /  5 °C 38.9 °F /  3.8 °C 30.27 in /  1024.9 hPa SSW 4.3 mph /  6.9 km/h 6.9 mph /  11.1 km/h 92 % 0.00 in /  0 mm
21:48 41.3 °F /  5.2 °C 39.2 °F /  4 °C 30.27 in /  1024.9 hPa SSW 5.0 mph /  8 km/h 11.5 mph /  18.5 km/h 92 % 0.00 in /  0 mm
21:54 41.6 °F /  5.3 °C 39.2 °F /  4 °C 30.26 in /  1024.6 hPa SE 5.2 mph /  8.4 km/h 8.1 mph /  13 km/h 91 % 0.00 in /  0 mm
21:59 41.8 °F /  5.4 °C 39.4 °F /  4.1 °C 30.26 in /  1024.6 hPa SW 5.5 mph /  8.9 km/h 10.4 mph /  16.7 km/h 91 % 0.00 in /  0 mm
22:04 41.9 °F /  5.5 °C 39.2 °F /  4 °C 30.25 in /  1024.3 hPa South 3.7 mph /  6 km/h 6.0 mph /  9.7 km/h 90 % 0.00 in /  0 mm
22:09 42.0 °F /  5.6 °C 39.3 °F /  4.1 °C 30.25 in /  1024.3 hPa South 6.9 mph /  11.1 km/h 9.0 mph /  14.5 km/h 90 % 0.00 in /  0 mm
22:14 42.3 °F /  5.7 °C 39.3 °F /  4.1 °C 30.24 in /  1023.9 hPa SE 6.2 mph /  10 km/h 10.4 mph /  16.7 km/h 89 % 0.00 in /  0 mm
22:19 42.4 °F /  5.8 °C 39.4 °F /  4.1 °C 30.25 in /  1024.3 hPa SSE 5.9 mph /  9.5 km/h 9.2 mph /  14.8 km/h 89 % 0.00 in /  0 mm
22:24 42.6 °F /  5.9 °C 39.3 °F /  4.1 °C 30.24 in /  1023.9 hPa South 4.7 mph /  7.6 km/h 7.0 mph /  11.3 km/h 88 % 0.00 in /  0 mm
22:29 42.8 °F /  6 °C 39.5 °F /  4.2 °C 30.23 in /  1023.6 hPa SSE 5.1 mph /  8.2 km/h 11.5 mph /  18.5 km/h 88 % 0.00 in /  0 mm
22:34 43.1 °F /  6.2 °C 39.5 °F /  4.2 °C 30.23 in /  1023.6 hPa South 7.0 mph /  11.3 km/h 12.0 mph /  19.3 km/h 87 % 0.00 in /  0 mm
22:39 43.3 °F /  6.3 °C 39.7 °F /  4.3 °C 30.23 in /  1023.6 hPa South 2.0 mph /  3.2 km/h 12.0 mph /  19.3 km/h 87 % 0.00 in /  0 mm
22:44 43.5 °F /  6.4 °C 39.6 °F /  4.2 °C 30.23 in /  1023.6 hPa South 6.8 mph /  10.9 km/h 11.5 mph /  18.5 km/h 86 % 0.00 in /  0 mm
22:49 43.8 °F /  6.6 °C 39.9 °F /  4.4 °C 30.23 in /  1023.6 hPa SSW 7.1 mph /  11.4 km/h 11.5 mph /  18.5 km/h 86 % 0.00 in /  0 mm
22:54 43.9 °F /  6.6 °C 40.0 °F /  4.4 °C 30.22 in /  1023.2 hPa SSE 7.7 mph /  12.4 km/h 11.5 mph /  18.5 km/h 86 % 0.00 in /  0 mm
22:59 44.2 °F /  6.8 °C 40.0 °F /  4.4 °C 30.22 in /  1023.2 hPa SSW 5.8 mph /  9.3 km/h 12.7 mph /  20.4 km/h 85 % 0.00 in /  0 mm
23:04 44.5 °F /  6.9 °C 40.0 °F /  4.4 °C 30.22 in /  1023.2 hPa SSW 5.4 mph /  8.7 km/h 11.5 mph /  18.5 km/h 84 % 0.00 in /  0 mm
23:09 44.6 °F /  7 °C 40.4 °F /  4.7 °C 30.21 in /  1022.9 hPa WSW 3.8 mph /  6.1 km/h 6.9 mph /  11.1 km/h 85 % 0.00 in /  0 mm
23:14 44.7 °F /  7.1 °C 40.5 °F /  4.7 °C 30.20 in /  1022.6 hPa South 6.0 mph /  9.7 km/h 11.5 mph /  18.5 km/h 85 % 0.00 in /  0 mm
23:19 44.9 °F /  7.2 °C 40.4 °F /  4.7 °C 30.20 in /  1022.6 hPa South 5.4 mph /  8.7 km/h 9.2 mph /  14.8 km/h 84 % 0.00 in /  0 mm
23:25 45.1 °F /  7.3 °C 40.6 °F /  4.8 °C 30.20 in /  1022.6 hPa SSW 4.1 mph /  6.6 km/h 10.4 mph /  16.7 km/h 84 % 0.00 in /  0 mm
23:30 45.2 °F /  7.3 °C 40.7 °F /  4.8 °C 30.20 in /  1022.6 hPa SSE 5.4 mph /  8.7 km/h 6.9 mph /  11.1 km/h 84 % 0.00 in /  0 mm
23:35 45.3 °F /  7.4 °C 40.7 °F /  4.8 °C 30.19 in /  1022.2 hPa South 4.6 mph /  7.4 km/h 13.0 mph /  20.9 km/h 84 % 0.00 in /  0 mm
23:40 45.4 °F /  7.4 °C 40.8 °F /  4.9 °C 30.19 in /  1022.2 hPa SSW 4.8 mph /  7.7 km/h 8.0 mph /  12.9 km/h 84 % 0.00 in /  0 mm
23:45 45.5 °F /  7.5 °C 40.9 °F /  4.9 °C 30.19 in /  1022.2 hPa South 5.1 mph /  8.2 km/h 8.1 mph /  13 km/h 84 % 0.00 in /  0 mm
23:50 45.4 °F /  7.4 °C 40.8 °F /  4.9 °C 30.18 in /  1021.9 hPa SSE 3.5 mph /  5.6 km/h 5.8 mph /  9.3 km/h 84 % 0.00 in /  0 mm
23:55 45.5 °F /  7.5 °C 40.9 °F /  4.9 °C 30.18 in /  1021.9 hPa South 6.6 mph /  10.6 km/h 11.5 mph /  18.5 km/h 84 % 0.00 in /  0 mm
Crab Meadow Weather
Compliments of Weather Underground - 3.25 mb

Script developed by  Jim McMurry - jmcmurry@mwt.net Adapted for the template by  Wim van der Kuil - Leuven-Template.eu

Lightning: Lightning's return stroke is hotter than the surface of the sun. Lightning is 50,000 degrees F. The sun is about 11,000 degrees F.